Terminal Aerodrome Forecast
Issued by NWS

Home | Current Version | Previous Version | Text Only | Print | Product List | Glossary On
Versions: 1 2 3 4 5 6 7 8 9 10 11 12 13 14 15 16 17 18 19 20 21 22
477
FTUS43 KMQT 241318 AAA
TAFSAW
TAF AMD
KSAW 241318Z 2413/2512 18009KT 3SM BR BKN002
     FM241500 19008KT P6SM SCT002 OVC010
     FM241600 22007KT P6SM SCT012
     FM241700 24007KT P6SM BKN030
     FM241900 27008KT P6SM VCSH SCT045
     FM242100 35007KT P6SM SCT070
     FM250200 29004KT P6SM FEW200=

USA.gov is the U.S. government's official web portal to all federal, state and local government web resources and services.